createdAt,value
2023-04-12T01:14:58.340Z,3.03
2023-04-12T01:17:29.342Z,3.30
2023-04-12T01:19:59.451Z,3.30
2023-04-12T01:22:48.978Z,3.05
2023-04-12T01:25:24.404Z,3.17
2023-04-12T01:27:58.189Z,3.20
2023-04-12T01:38:00.802Z,3.28
2023-04-12T01:45:40.780Z,3.08
2023-04-12T01:50:42.889Z,2.53
2023-04-12T01:53:14.216Z,2.97
2023-04-12T01:55:45.946Z,2.72
2023-04-12T01:58:17.873Z,2.67
2023-04-12T02:00:47.279Z,2.50
2023-04-12T02:03:16.885Z,2.60
2023-04-12T02:05:46.268Z,2.70
2023-04-12T02:08:15.775Z,2.60
2023-04-12T02:10:45.048Z,2.58
2023-04-12T02:13:14.291Z,2.42
2023-04-12T02:15:46.212Z,2.50
2023-04-12T02:18:17.646Z,2.63
2023-04-12T02:20:47.001Z,2.53
2023-04-12T02:23:16.294Z,2.50
2023-04-12T02:25:46.671Z,2.35
2023-04-12T02:28:16.168Z,2.45
2023-04-12T02:30:48.519Z,2.58
2023-04-12T02:33:17.797Z,2.65
2023-04-12T02:35:47.855Z,2.53
2023-04-12T02:38:17.128Z,2.35
2023-04-12T02:40:46.386Z,2.30
2023-04-12T02:43:15.665Z,2.30
2023-04-12T02:45:44.953Z,2.53
2023-04-12T02:48:16.849Z,2.40
2023-04-12T02:50:46.094Z,2.58
2023-04-12T02:53:15.594Z,2.42
2023-04-12T02:55:45.129Z,2.38
2023-04-12T02:58:14.388Z,2.53
2023-04-12T03:08:16.843Z,2.30
2023-04-12T03:10:46.132Z,2.45
2023-04-12T03:13:15.629Z,2.92
2023-04-12T03:15:45.844Z,2.70
2023-04-12T03:18:15.098Z,2.43
2023-04-12T03:20:47.780Z,2.60
2023-04-12T03:23:17.198Z,2.33
2023-04-12T03:25:46.783Z,2.38
2023-04-12T03:28:16.176Z,2.33
2023-04-12T03:30:46.161Z,2.42
2023-04-12T03:33:15.465Z,2.50
2023-04-12T03:35:47.363Z,2.72
2023-04-12T03:38:16.657Z,2.53
2023-04-12T03:40:45.978Z,2.75
2023-04-12T03:43:15.522Z,2.50
2023-04-12T03:45:45.566Z,2.58
2023-04-12T03:48:14.858Z,2.85
2023-04-12T03:50:45.068Z,2.40
2023-04-12T03:53:16.951Z,2.50
2023-04-12T03:55:46.239Z,2.50
2023-04-12T03:58:16.462Z,2.88
2023-04-12T04:00:46.793Z,2.92
2023-04-12T04:03:16.167Z,2.27
2023-04-12T04:05:45.535Z,2.50
2023-04-12T04:08:17.374Z,2.47
2023-04-12T04:10:46.668Z,2.60
2023-04-12T04:13:16.013Z,2.53
2023-04-12T04:15:45.305Z,2.55
2023-04-12T04:20:44.205Z,2.50
2023-04-12T04:23:13.516Z,2.72
2023-04-12T04:25:46.373Z,2.55
2023-04-12T04:28:16.117Z,3.10
2023-04-12T04:30:46.287Z,2.70
2023-04-12T04:33:16.049Z,3.03
2023-04-12T04:35:45.547Z,2.97
2023-04-12T04:38:15.831Z,3.50
2023-04-12T04:40:48.142Z,3.13
2023-04-12T04:43:18.908Z,3.25
2023-04-12T04:45:49.512Z,3.05
2023-04-12T04:48:18.990Z,3.58
2023-04-12T04:50:48.245Z,3.60
2023-04-12T04:53:18.836Z,3.63
2023-04-12T04:55:50.679Z,3.92
2023-04-12T04:58:19.917Z,3.90
2023-04-12T05:00:49.235Z,4.43
2023-04-12T05:03:18.610Z,4.45
2023-04-12T05:05:47.908Z,4.60
2023-04-12T05:08:17.180Z,4.10
2023-04-12T05:10:46.745Z,4.60
2023-04-12T05:13:18.581Z,4.70
2023-04-12T05:15:47.816Z,4.13
2023-04-12T05:18:17.910Z,4.55
2023-04-12T05:20:48.471Z,4.78
2023-04-12T05:23:17.788Z,4.80
2023-04-12T05:25:48.310Z,4.80
2023-04-12T05:28:20.331Z,4.68
2023-04-12T05:30:49.598Z,4.93
2023-04-12T05:33:18.864Z,5.18
2023-04-12T05:35:48.233Z,5.07
2023-04-12T05:38:17.507Z,5.28
2023-04-12T05:40:46.857Z,6.45
2023-04-12T05:43:17.851Z,6.20
2023-04-12T05:45:49.681Z,6.72
2023-04-12T05:48:18.977Z,7.30
2023-04-12T05:50:53.060Z,6.57
2023-04-12T05:53:22.325Z,7.13
2023-04-12T05:55:51.802Z,7.10
2023-04-12T05:58:21.165Z,6.68
2023-04-12T06:00:53.844Z,7.18
2023-04-12T06:03:24.080Z,6.68
2023-04-12T06:05:53.519Z,7.10
2023-04-12T06:08:22.790Z,7.28
2023-04-12T06:10:52.073Z,6.85
2023-04-12T06:13:21.534Z,7.47
2023-04-12T06:15:53.422Z,6.80
2023-04-12T06:18:22.723Z,6.95
2023-04-12T06:20:52.032Z,6.80
2023-04-12T06:23:21.506Z,6.78
2023-04-12T06:25:50.769Z,6.32
2023-04-12T06:28:20.055Z,6.40
2023-04-12T06:30:49.340Z,6.20
2023-04-12T06:33:23.050Z,5.68
2023-04-12T07:20:57.656Z,4.40
2023-04-12T08:48:51.075Z,4.10
2023-04-12T09:11:26.468Z,4.60
2023-04-12T09:26:44.340Z,5.78
